Time;durP1;ratioP1;P1;durP2;ratioP2;P2;SDS_P1;SDS_P2;PMS_P1;PMS_P2;Temp;Humidity;BMP_temperature;BMP_pressure;BME280_temperature;BME280_humidity;BME280_pressure;Samples;Min_cycle;Max_cycle;Signal;HPM_P1;HPM_P2
2022/10/24 00:00:28;;;;;;;0.00;0.00;;;;;;;20.28;50.38;98277.66;6173386;23;20221;-54
2022/10/24 00:02:55;;;;;;;0.00;0.00;;;;;;;20.15;51.72;98270.69;6171345;23;20208;-52
2022/10/24 00:05:21;;;;;;;0.00;0.00;;;;;;;20.06;51.05;98276.28;6175057;23;20202;-54
2022/10/24 00:07:50;;;;;;;0.00;0.00;;;;;;;20.32;49.40;98274.34;6175060;23;20205;-52
2022/10/24 00:10:17;;;;;;;0.00;0.00;;;;;;;20.08;50.99;98285.84;6171579;23;20271;-51
2022/10/24 00:12:44;;;;;;;0.00;0.00;;;;;;;19.97;51.18;98271.50;6175307;23;20593;-52
2022/10/24 00:15:11;;;;;;;0.00;0.00;;;;;;;19.88;50.81;98271.75;6171442;23;20258;-53
2022/10/24 00:17:38;;;;;;;0.00;0.00;;;;;;;19.86;51.88;98275.66;6175212;23;20229;-52
2022/10/24 00:20:07;;;;;;;0.00;0.00;;;;;;;19.56;53.08;98271.88;6171267;23;20211;-51
2022/10/24 00:22:34;;;;;;;0.00;0.00;;;;;;;19.23;55.67;98267.66;6175350;23;20203;-52
2022/10/24 00:25:02;;;;;;;0.00;0.00;;;;;;;18.99;55.47;98270.09;6169183;23;20204;-53
2022/10/24 00:27:28;;;;;;;0.00;0.00;;;;;;;18.72;57.34;98272.06;6174741;23;20199;-53
2022/10/24 00:29:55;;;;;;;0.00;0.00;;;;;;;18.56;58.55;98270.72;6168716;23;20215;-52
2022/10/24 00:32:22;;;;;;;0.00;0.00;;;;;;;18.39;58.49;98279.16;6175312;23;20270;-51
2022/10/24 00:34:49;;;;;;;0.00;0.00;;;;;;;18.28;59.12;98277.97;6175435;23;20205;-51
2022/10/24 00:37:15;;;;;;;0.00;0.00;;;;;;;18.20;59.64;98266.81;6171942;23;20212;-52
2022/10/24 00:39:42;;;;;;;0.00;0.00;;;;;;;18.08;60.46;98272.75;6174182;23;20267;-53
2022/10/24 00:42:10;;;;;;;0.00;0.00;;;;;;;17.96;60.08;98274.41;6170898;23;20204;-52
2022/10/24 00:44:39;;;;;;;0.00;0.00;;;;;;;17.81;60.99;98272.81;6175534;23;20219;-51
2022/10/24 00:47:08;;;;;;;0.00;0.00;;;;;;;17.93;58.98;98269.53;6172107;23;20199;-53
2022/10/24 00:49:43;;;;;;;0.00;0.00;;;;;;;17.94;61.78;98271.16;6178153;23;20209;-51
2022/10/24 00:52:11;;;;;;;0.00;0.00;;;;;;;17.81;62.41;98269.34;6175415;23;20199;-54
2022/10/24 00:54:40;;;;;;;0.00;0.00;;;;;;;17.85;61.81;98279.31;6178936;23;20204;-51
2022/10/24 00:57:11;;;;;;;0.00;0.00;;;;;;;17.97;60.38;98273.41;6175412;23;20684;-51
2022/10/24 00:59:41;;;;;;;0.00;0.00;;;;;;;18.06;59.97;98274.00;6179535;23;20254;-51
2022/10/24 01:02:08;;;;;;;0.00;0.00;;;;;;;18.35;57.75;98275.31;6175084;23;20257;-52
2022/10/24 01:04:34;;;;;;;0.00;0.00;;;;;;;18.39;58.54;98267.78;6179262;23;20210;-52
2022/10/24 01:07:15;;;;;;;0.00;0.00;;;;;;;18.36;58.21;98266.34;6175443;23;20227;-51
2022/10/24 01:10:01;;;;;;;0.00;0.00;;;;;;;18.44;58.59;98255.53;6177873;23;20208;-53
2022/10/24 01:12:39;;;;;;;0.00;0.00;;;;;;;18.44;58.04;98263.47;6174105;23;20207;-51
2022/10/24 01:15:16;;;;;;;0.00;0.00;;;;;;;18.70;57.05;98268.81;6174204;23;20205;-51
2022/10/24 01:17:50;;;;;;;0.00;0.00;;;;;;;18.73;56.65;98257.81;6178701;23;20255;-53
2022/10/24 01:20:39;;;;;;;0.00;0.00;;;;;;;18.84;56.11;98254.50;6174254;23;20208;-53
2022/10/24 01:23:23;;;;;;;0.00;0.00;;;;;;;18.76;56.85;98253.94;6177037;23;20263;-51
2022/10/24 01:26:05;;;;;;;0.00;0.00;;;;;;;18.71;56.84;98258.03;6179801;23;20265;-52
2022/10/24 01:28:45;;;;;;;0.00;0.00;;;;;;;18.84;56.89;98245.75;6175292;23;20254;-53
2022/10/24 01:31:20;;;;;;;0.00;0.00;;;;;;;18.77;57.34;98251.09;6177432;23;20213;-53
2022/10/24 01:33:51;;;;;;;0.00;0.00;;;;;;;18.71;57.72;98250.13;6179613;23;20295;-51
2022/10/24 01:36:25;;;;;;;0.00;0.00;;;;;;;18.71;58.35;98238.72;6150367;23;20585;-52
2022/10/24 01:38:57;;;;;;;0.00;0.00;;;;;;;18.76;58.33;98243.38;6179979;23;20257;-52
2022/10/24 01:41:27;;;;;;;0.00;0.00;;;;;;;18.92;56.18;98234.94;6177450;23;20206;-50
2022/10/24 01:44:01;;;;;;;0.00;0.00;;;;;;;18.94;56.86;98227.59;6153711;23;20254;-52
2022/10/24 01:46:33;;;;;;;0.00;0.00;;;;;;;18.95;57.32;98237.16;6177871;23;20204;-50
2022/10/24 01:49:05;;;;;;;0.00;0.00;;;;;;;18.96;56.79;98244.09;6177341;23;20207;-52
2022/10/24 01:51:34;;;;;;;0.00;0.00;;;;;;;19.03;56.50;98238.72;6180809;23;20212;-52
2022/10/24 01:54:03;;;;;;;0.00;0.00;;;;;;;19.00;56.81;98240.00;6176659;23;20205;-51
2022/10/24 01:56:29;;;;;;;0.00;0.00;;;;;;;18.93;57.62;98252.41;6180221;23;20237;-52
2022/10/24 01:59:04;;;;;;;0.00;0.00;;;;;;;18.93;57.54;98241.84;6176332;23;20651;-52
2022/10/24 02:01:32;;;;;;;0.00;0.00;;;;;;;18.95;57.72;98231.03;6179720;23;20201;-53
2022/10/24 02:04:04;;;;;;;0.00;0.00;;;;;;;18.93;57.79;98238.38;6176547;23;20758;-53
2022/10/24 02:06:34;;;;;;;0.00;0.00;;;;;;;18.93;57.77;98236.56;6180172;23;20197;-53
2022/10/24 02:09:06;;;;;;;0.00;0.00;;;;;;;19.04;57.87;98240.34;6176504;23;20245;-51
2022/10/24 02:11:35;;;;;;;0.00;0.00;;;;;;;19.02;57.52;98243.22;6179958;23;20231;-53
2022/10/24 02:14:06;;;;;;;0.00;0.00;;;;;;;19.12;57.25;98247.19;6176899;23;20583;-52
2022/10/24 02:16:35;;;;;;;0.00;0.00;;;;;;;19.14;57.53;98247.78;6179967;23;20269;-52
2022/10/24 02:19:02;;;;;;;0.00;0.00;;;;;;;19.20;56.93;98246.94;6176352;23;20213;-51
2022/10/24 02:21:33;;;;;;;0.00;0.00;;;;;;;19.17;57.42;98240.25;6154070;23;20282;-53
2022/10/24 02:24:06;;;;;;;0.00;0.00;;;;;;;19.18;57.56;98230.47;6176610;23;20202;-52
2022/10/24 02:26:38;;;;;;;0.00;0.00;;;;;;;19.27;56.47;98231.81;6180340;23;20263;-53
2022/10/24 02:29:09;;;;;;;0.00;0.00;;;;;;;19.25;57.36;98227.78;6149325;23;20262;-51
2022/10/24 02:31:43;;;;;;;0.00;0.00;;;;;;;19.27;57.40;98221.22;6154164;23;20212;-54
2022/10/24 02:34:12;;;;;;;0.00;0.00;;;;;;;19.32;56.89;98216.09;6175435;23;20258;-51
2022/10/24 02:36:42;;;;;;;0.00;0.00;;;;;;;19.37;56.69;98215.47;6179941;23;20213;-51
2022/10/24 02:39:11;;;;;;;0.00;0.00;;;;;;;19.50;56.13;98208.41;6176987;23;20266;-52
2022/10/24 02:41:40;;;;;;;0.00;0.00;;;;;;;19.51;56.80;98217.97;6180121;23;20201;-52
2022/10/24 02:44:09;;;;;;;0.00;0.00;;;;;;;19.58;56.74;98218.72;6177408;23;20200;-52
2022/10/24 02:46:35;;;;;;;0.00;0.00;;;;;;;19.39;57.51;98217.88;6180659;23;20212;-52
2022/10/24 02:49:04;;;;;;;0.00;0.00;;;;;;;19.37;57.78;98206.69;6176782;23;20648;-52
2022/10/24 02:51:34;;;;;;;0.00;0.00;;;;;;;19.43;57.34;98206.66;6180727;23;20814;-52
2022/10/24 02:54:02;;;;;;;0.00;0.00;;;;;;;19.47;57.24;98207.00;6178237;23;20260;-54
2022/10/24 02:56:29;;;;;;;0.00;0.00;;;;;;;19.33;57.86;98208.97;6181816;23;20582;-53
2022/10/24 02:58:56;;;;;;;0.00;0.00;;;;;;;19.22;58.33;98218.41;6177354;23;20204;-52
2022/10/24 03:04:05;;;;;;;0.00;0.00;;;;;;;19.46;57.21;98219.44;6167825;22;20258;-58
2022/10/24 03:06:32;;;;;;;0.00;0.00;;;;;;;19.35;57.91;98224.63;6203360;23;20209;-59
2022/10/24 03:08:58;;;;;;;0.00;0.00;;;;;;;19.35;57.87;98235.22;6203337;23;20661;-58
2022/10/24 03:11:25;;;;;;;0.00;0.00;;;;;;;19.29;58.73;98239.56;6206975;23;20257;-59
2022/10/24 03:13:52;;;;;;;0.00;0.00;;;;;;;19.33;58.09;98233.59;6206802;23;20263;-57
2022/10/24 03:16:18;;;;;;;0.00;0.00;;;;;;;19.38;58.00;98229.47;6177071;23;20261;-58
2022/10/24 03:18:45;;;;;;;0.00;0.00;;;;;;;19.45;57.54;98230.22;6206960;23;20200;-59
2022/10/24 03:21:13;;;;;;;0.00;0.00;;;;;;;19.51;57.70;98226.72;6203591;23;20201;-58
2022/10/24 03:23:39;;;;;;;0.00;0.00;;;;;;;19.41;57.83;98224.56;6206546;23;20257;-58
2022/10/24 03:26:06;;;;;;;0.00;0.00;;;;;;;19.39;58.09;98215.22;6203557;23;20258;-58
2022/10/24 03:28:35;;;;;;;0.00;0.00;;;;;;;19.38;58.13;98206.50;6206710;23;20204;-59
2022/10/24 03:33:30;;;;;;;0.00;0.00;;;;;;;19.26;58.87;98201.09;6129193;23;20702;-60
2022/10/24 03:35:57;;;;;;;0.00;0.00;;;;;;;19.14;59.72;98216.88;6143369;23;20254;-60
2022/10/24 03:38:25;;;;;;;0.00;0.00;;;;;;;19.06;60.51;98214.50;6147044;23;20200;-59
2022/10/24 03:40:52;;;;;;;0.00;0.00;;;;;;;19.06;60.80;98198.63;6150152;23;20197;-59
2022/10/24 03:43:19;;;;;;;0.00;0.00;;;;;;;19.04;59.95;98213.91;6173185;23;20211;-58
2022/10/24 03:45:46;;;;;;;0.00;0.00;;;;;;;18.96;60.64;98216.78;6176851;23;20210;-60
2022/10/24 03:48:13;;;;;;;0.00;0.00;;;;;;;18.93;60.86;98204.81;6173364;23;20705;-60
2022/10/24 03:50:40;;;;;;;0.00;0.00;;;;;;;18.86;60.96;98218.06;6176578;23;20962;-59
2022/10/24 03:53:07;;;;;;;0.00;0.00;;;;;;;19.02;59.94;98226.53;6172984;23;20216;-58
2022/10/24 03:55:35;;;;;;;0.00;0.00;;;;;;;18.95;61.31;98237.16;6176755;23;20282;-59
2022/10/24 03:58:02;;;;;;;0.00;0.00;;;;;;;18.92;60.70;98231.47;6173360;23;20204;-58
2022/10/24 04:00:28;;;;;;;0.00;0.00;;;;;;;18.88;61.05;98231.88;6176849;23;20204;-58
2022/10/24 04:02:55;;;;;;;0.00;0.00;;;;;;;18.84;61.12;98235.97;6176139;23;20557;-58
2022/10/24 04:05:22;;;;;;;0.00;0.00;;;;;;;18.89;60.80;98235.34;6173556;23;20683;-58
2022/10/24 04:07:48;;;;;;;0.00;0.00;;;;;;;18.85;61.28;98234.97;6176756;23;20666;-58
2022/10/24 04:10:15;;;;;;;0.00;0.00;;;;;;;18.87;60.88;98240.06;6172927;23;20728;-58
2022/10/24 04:12:43;;;;;;;0.00;0.00;;;;;;;18.91;60.87;98237.78;6176382;23;20205;-58
2022/10/24 04:15:10;;;;;;;0.00;0.00;;;;;;;19.21;59.41;98234.53;6173419;23;20209;-58
2022/10/24 04:17:37;;;;;;;0.00;0.00;;;;;;;19.23;58.97;98229.81;6176541;23;20252;-58
2022/10/24 04:20:04;;;;;;;0.00;0.00;;;;;;;19.25;59.14;98236.50;6173116;23;20208;-59
2022/10/24 04:22:31;;;;;;;0.00;0.00;;;;;;;19.27;59.49;98244.25;6176446;23;20219;-59
2022/10/24 04:24:57;;;;;;;0.00;0.00;;;;;;;19.25;59.34;98231.22;6172593;23;20214;-59
2022/10/24 04:27:24;;;;;;;0.00;0.00;;;;;;;19.21;60.73;98248.56;6176618;23;20208;-59
2022/10/24 04:29:52;;;;;;;0.00;0.00;;;;;;;19.22;60.90;98270.53;6176364;23;20258;-58
2022/10/24 04:32:18;;;;;;;0.00;0.00;;;;;;;19.18;61.29;98273.63;6171107;23;20258;-58
2022/10/24 04:34:45;;;;;;;0.00;0.00;;;;;;;19.05;64.60;98294.88;6176015;23;20212;-58
2022/10/24 04:37:11;;;;;;;0.00;0.00;;;;;;;18.83;69.07;98316.34;6172857;23;20259;-59
2022/10/24 04:39:38;;;;;;;0.00;0.00;;;;;;;18.56;71.74;98323.59;6176289;23;20250;-58
2022/10/24 04:42:05;;;;;;;0.00;0.00;;;;;;;18.03;74.15;98322.75;6172765;23;20266;-58
2022/10/24 04:44:31;;;;;;;0.00;0.00;;;;;;;17.82;75.88;98313.22;6176161;23;20200;-58
2022/10/24 04:46:59;;;;;;;0.00;0.00;;;;;;;17.59;76.29;98309.16;6173156;23;20649;-58
2022/10/24 04:49:26;;;;;;;0.00;0.00;;;;;;;17.50;79.13;98302.47;6176377;23;20273;-58
2022/10/24 04:51:52;;;;;;;0.00;0.00;;;;;;;17.38;80.18;98294.38;6176304;23;20234;-59
2022/10/24 04:54:19;;;;;;;0.00;0.00;;;;;;;17.22;82.46;98285.84;6172471;23;20214;-58
2022/10/24 04:56:45;;;;;;;0.00;0.00;;;;;;;17.08;83.42;98290.31;6175958;23;20207;-58
2022/10/24 04:59:12;;;;;;;0.00;0.00;;;;;;;16.91;85.77;98297.78;6173026;23;20266;-59
2022/10/24 05:01:38;;;;;;;0.00;0.00;;;;;;;16.87;86.55;98319.44;6176172;23;20664;-58
2022/10/24 05:04:07;;;;;;;0.00;0.00;;;;;;;16.81;86.63;98306.03;6172541;23;20249;-58
2022/10/24 05:06:33;;;;;;;0.00;0.00;;;;;;;16.80;86.88;98361.59;6176341;23;20295;-59
2022/10/24 05:09:00;;;;;;;0.00;0.00;;;;;;;16.82;87.49;98413.09;6173097;23;20248;-59
2022/10/24 05:11:26;;;;;;;0.00;0.00;;;;;;;16.81;88.80;98400.13;6176203;23;20210;-59
2022/10/24 05:13:53;;;;;;;0.00;0.00;;;;;;;16.53;95.16;98393.91;6175908;23;20206;-59
2022/10/24 05:16:19;;;;;;;0.00;0.00;;;;;;;16.06;100.00;98369.94;6173128;23;20200;-59
2022/10/24 05:18:46;;;;;;;0.00;0.00;;;;;;;15.86;100.00;98361.09;6176417;23;20210;-59
2022/10/24 05:21:14;;;;;;;0.00;0.00;;;;;;;15.75;100.00;98349.25;6170742;23;20203;-60
2022/10/24 05:23:40;;;;;;;0.00;0.00;;;;;;;15.71;100.00;98371.69;6175692;23;20579;-60
2022/10/24 05:26:08;;;;;;;0.00;0.00;;;;;;;15.71;100.00;98343.56;6172791;23;20288;-60
2022/10/24 05:28:35;;;;;;;0.00;0.00;;;;;;;15.72;100.00;98307.53;6176354;23;20209;-59
2022/10/24 05:31:02;;;;;;;0.00;0.00;;;;;;;15.70;100.00;98320.06;6172780;23;20210;-59
2022/10/24 05:33:28;;;;;;;0.00;0.00;;;;;;;15.72;99.68;98326.78;6175851;23;20211;-60
2022/10/24 05:35:55;;;;;;;0.00;0.00;;;;;;;15.70;100.00;98336.69;6175754;23;20269;-60
2022/10/24 05:38:23;;;;;;;0.00;0.00;;;;;;;15.68;100.00;98333.44;6173197;23;20209;-60
2022/10/24 05:40:50;;;;;;;0.00;0.00;;;;;;;15.64;99.60;98317.19;6175973;23;20266;-60
2022/10/24 05:43:17;;;;;;;0.00;0.00;;;;;;;15.68;96.96;98328.16;6171558;23;20520;-60
2022/10/24 05:45:44;;;;;;;0.00;0.00;;;;;;;15.65;97.12;98316.19;6175884;23;20206;-59
2022/10/24 05:48:10;;;;;;;0.00;0.00;;;;;;;15.71;96.81;98329.59;6172525;23;20587;-60
2022/10/24 05:50:37;;;;;;;0.00;0.00;;;;;;;15.70;95.48;98341.13;6176161;23;20565;-60
2022/10/24 05:53:04;;;;;;;0.00;0.00;;;;;;;15.75;96.37;98336.94;6172308;23;20214;-61
2022/10/24 05:55:33;;;;;;;0.00;0.00;;;;;;;15.71;97.66;98356.72;6176242;23;20324;-60
2022/10/24 05:58:00;;;;;;;0.00;0.00;;;;;;;15.77;95.03;98365.66;6172766;23;20210;-60
2022/10/24 06:00:26;;;;;;;0.00;0.00;;;;;;;15.77;95.53;98363.03;6175496;23;20644;-60
2022/10/24 06:02:53;;;;;;;0.00;0.00;;;;;;;15.73;95.88;98367.88;6175228;23;20215;-60
2022/10/24 06:05:20;;;;;;;0.00;0.00;;;;;;;15.75;95.27;98391.34;6172412;23;20210;-59
2022/10/24 06:07:47;;;;;;;0.00;0.00;;;;;;;15.69;96.57;98394.75;6175868;23;20256;-60
2022/10/24 06:10:14;;;;;;;0.00;0.00;;;;;;;15.49;100.00;98409.38;6173749;23;20208;-59
2022/10/24 06:12:42;;;;;;;0.00;0.00;;;;;;;15.37;100.00;98395.09;6177765;23;20209;-60
2022/10/24 06:15:10;;;;;;;0.00;0.00;;;;;;;15.35;100.00;98376.03;6174000;23;20205;-60
2022/10/24 06:17:36;;;;;;;0.00;0.00;;;;;;;15.30;100.00;98363.47;6177647;23;20210;-60
2022/10/24 06:20:03;;;;;;;0.00;0.00;;;;;;;15.25;100.00;98371.09;6174218;23;20211;-60
2022/10/24 06:22:30;;;;;;;0.00;0.00;;;;;;;15.22;100.00;98399.56;6177823;23;20668;-62
2022/10/24 06:24:57;;;;;;;0.00;0.00;;;;;;;15.16;100.00;98415.09;6174081;23;20288;-60
2022/10/24 06:27:23;;;;;;;0.00;0.00;;;;;;;15.07;100.00;98425.91;6177480;23;20230;-59
2022/10/24 06:29:51;;;;;;;0.00;0.00;;;;;;;14.97;100.00;98447.22;6177029;23;20305;-59
2022/10/24 06:32:18;;;;;;;0.00;0.00;;;;;;;14.93;100.00;98402.09;6173679;23;20214;-60
2022/10/24 06:34:45;;;;;;;0.00;0.00;;;;;;;14.92;100.00;98405.72;6177051;23;20200;-60
2022/10/24 06:37:11;;;;;;;0.00;0.00;;;;;;;14.93;100.00;98396.00;6173140;23;20208;-60
2022/10/24 06:39:38;;;;;;;0.00;0.00;;;;;;;14.93;100.00;98385.50;6176884;23;20681;-59
2022/10/24 06:42:05;;;;;;;0.00;0.00;;;;;;;14.95;100.00;98359.84;6173703;23;20204;-59
2022/10/24 06:44:31;;;;;;;0.00;0.00;;;;;;;14.99;100.00;98340.09;6177062;23;20213;-60
2022/10/24 06:46:59;;;;;;;0.00;0.00;;;;;;;15.00;100.00;98352.22;6173669;23;20530;-60
2022/10/24 06:49:26;;;;;;;0.00;0.00;;;;;;;15.01;100.00;98336.28;6177507;23;20240;-60
2022/10/24 06:51:52;;;;;;;0.00;0.00;;;;;;;14.99;100.00;98351.44;6177439;23;20251;-59
2022/10/24 06:54:19;;;;;;;0.00;0.00;;;;;;;14.87;100.00;98348.44;6173960;23;20213;-59
2022/10/24 06:56:45;;;;;;;0.00;0.00;;;;;;;14.81;100.00;98354.47;6177464;23;20250;-60
2022/10/24 06:59:15;;;;;;;0.00;0.00;;;;;;;14.80;100.00;98358.09;6173991;23;20259;-60
2022/10/24 07:01:42;;;;;;;0.00;0.00;;;;;;;14.78;100.00;98362.72;6177273;23;20217;-60
2022/10/24 07:04:10;;;;;;;0.00;0.00;;;;;;;14.76;100.00;98368.16;6173948;23;20201;-59
2022/10/24 07:06:37;;;;;;;0.00;0.00;;;;;;;14.78;100.00;98365.34;6177199;23;20198;-59
2022/10/24 07:09:05;;;;;;;0.00;0.00;;;;;;;14.82;100.00;98371.88;6173556;23;20276;-59
2022/10/24 07:11:33;;;;;;;0.00;0.00;;;;;;;14.89;100.00;98362.22;6177093;23;20241;-60
2022/10/24 07:13:59;;;;;;;0.00;0.00;;;;;;;14.96;100.00;98358.84;6173033;23;20202;-61
2022/10/24 07:16:26;;;;;;;0.00;0.00;;;;;;;15.02;100.00;98358.13;6176829;23;20256;-60
2022/10/24 07:18:53;;;;;;;0.00;0.00;;;;;;;15.07;100.00;98370.72;6177053;23;20627;-60
2022/10/24 07:21:23;;;;;;;0.00;0.00;;;;;;;15.16;100.00;98369.59;6173632;23;20310;-60
2022/10/24 07:23:51;;;;;;;0.00;0.00;;;;;;;15.18;100.00;98378.91;6176551;23;20670;-60
2022/10/24 07:26:19;;;;;;;0.00;0.00;;;;;;;15.22;100.00;98378.53;6174042;23;20870;-60
2022/10/24 07:28:52;;;;;;;0.00;0.00;;;;;;;15.28;100.00;98383.88;6177246;23;20208;-61
2022/10/24 07:31:20;;;;;;;0.00;0.00;;;;;;;15.37;100.00;98376.66;6173165;23;20209;-60
2022/10/24 07:33:46;;;;;;;0.00;0.00;;;;;;;15.42;100.00;98379.56;6176825;23;20210;-60
2022/10/24 07:36:16;;;;;;;0.00;0.00;;;;;;;15.49;100.00;98376.97;6173666;23;20512;-60
2022/10/24 07:38:44;;;;;;;0.00;0.00;;;;;;;15.56;100.00;98388.38;6176909;23;20206;-61
2022/10/24 07:41:11;;;;;;;0.00;0.00;;;;;;;15.60;100.00;98379.09;6173473;23;20248;-60
2022/10/24 07:43:38;;;;;;;0.00;0.00;;;;;;;15.75;100.00;98386.94;6176600;23;20256;-61
2022/10/24 07:46:06;;;;;;;0.00;0.00;;;;;;;15.88;100.00;98385.44;6173009;23;20611;-60
2022/10/24 07:48:33;;;;;;;0.00;0.00;;;;;;;15.99;100.00;98389.34;6176803;23;20722;-60
2022/10/24 07:50:59;;;;;;;0.00;0.00;;;;;;;16.02;100.00;98397.66;6173112;23;20538;-60
2022/10/24 07:53:26;;;;;;;0.00;0.00;;;;;;;16.09;100.00;98387.19;6176192;23;20212;-61
2022/10/24 07:55:54;;;;;;;0.00;0.00;;;;;;;16.28;96.49;98380.41;6176883;23;20745;-60
2022/10/24 07:58:20;;;;;;;0.00;0.00;;;;;;;16.35;97.38;98373.38;6173392;23;20276;-61
2022/10/24 08:00:47;;;;;;;0.00;0.00;;;;;;;16.44;95.56;98362.66;6176975;23;20213;-61
2022/10/24 08:03:14;;;;;;;0.00;0.00;;;;;;;16.44;98.00;98366.09;6173095;23;20206;-60
2022/10/24 08:05:41;;;;;;;0.00;0.00;;;;;;;16.48;96.52;98377.06;6176873;23;20530;-61
2022/10/24 08:08:07;;;;;;;0.00;0.00;;;;;;;16.43;96.07;98372.38;6173240;23;20206;-60
2022/10/24 08:10:34;;;;;;;0.00;0.00;;;;;;;16.46;95.59;98365.91;6176539;23;20260;-60
2022/10/24 08:13:03;;;;;;;0.00;0.00;;;;;;;16.48;93.26;98374.44;6172672;23;20591;-61
2022/10/24 08:15:30;;;;;;;0.00;0.00;;;;;;;16.47;95.83;98373.63;6176637;23;20207;-61
2022/10/24 08:17:57;;;;;;;0.00;0.00;;;;;;;16.48;94.96;98371.81;6173442;23;20611;-60
2022/10/24 08:20:25;;;;;;;0.00;0.00;;;;;;;16.42;95.30;98378.69;6176117;23;20197;-60
2022/10/24 08:22:51;;;;;;;0.00;0.00;;;;;;;16.37;96.16;98379.25;6176326;23;20210;-61
2022/10/24 08:25:18;;;;;;;0.00;0.00;;;;;;;16.37;95.05;98384.53;6173285;23;20210;-60
2022/10/24 08:27:45;;;;;;;0.00;0.00;;;;;;;16.46;94.57;98368.56;6176548;23;20205;-61
2022/10/24 08:30:16;;;;;;;0.00;0.00;;;;;;;16.47;95.00;98376.25;6173148;23;20197;-59
2022/10/24 08:32:43;;;;;;;0.00;0.00;;;;;;;16.43;93.42;98375.00;6175907;23;20206;-60
2022/10/24 08:35:10;;;;;;;0.00;0.00;;;;;;;16.51;93.34;98366.16;6172951;23;20203;-60
2022/10/24 08:37:37;;;;;;;0.00;0.00;;;;;;;16.55;94.52;98356.03;6175132;23;20214;-60
2022/10/24 08:40:06;;;;;;;0.00;0.00;;;;;;;16.46;93.13;98365.91;6172682;23;20724;-61
2022/10/24 08:42:33;;;;;;;0.00;0.00;;;;;;;16.52;92.92;98365.13;6175779;23;20651;-60
2022/10/24 08:45:00;;;;;;;0.00;0.00;;;;;;;16.60;91.80;98367.63;6172648;23;20201;-61
2022/10/24 08:47:35;;;;;;;0.00;0.00;;;;;;;16.66;90.93;98361.56;6176558;23;20738;-61
2022/10/24 08:50:11;;;;;;;0.00;0.00;;;;;;;16.65;91.54;98375.75;6172797;23;20201;-61
2022/10/24 08:52:43;;;;;;;0.00;0.00;;;;;;;16.80;91.35;98377.41;6176648;23;20669;-60
2022/10/24 08:55:14;;;;;;;0.00;0.00;;;;;;;16.84;90.49;98365.47;6172855;23;20259;-60
2022/10/24 08:57:46;;;;;;;0.00;0.00;;;;;;;16.89;90.92;98368.34;6176452;23;20214;-60
2022/10/24 09:00:18;;;;;;;0.00;0.00;;;;;;;17.09;87.70;98376.31;6172803;23;20529;-60
2022/10/24 09:02:51;;;;;;;0.00;0.00;;;;;;;17.10;89.10;98382.38;6165917;23;20205;-61
2022/10/24 09:05:24;;;;;;;0.00;0.00;;;;;;;17.04;89.12;98386.66;6164459;23;20211;-61
2022/10/24 09:07:55;;;;;;;0.00;0.00;;;;;;;17.21;87.94;98384.44;6170068;23;20202;-61
2022/10/24 09:10:30;;;;;;;0.00;0.00;;;;;;;17.18;88.63;98384.84;6166233;23;20203;-61
2022/10/24 09:12:57;;;;;;;0.00;0.00;;;;;;;17.31;87.70;98381.44;6165896;23;20308;-60
2022/10/24 09:15:29;;;;;;;0.00;0.00;;;;;;;17.36;84.45;98388.75;6170009;23;20206;-59
2022/10/24 09:17:59;;;;;;;0.00;0.00;;;;;;;17.45;85.87;98382.25;6170034;23;20208;-59
2022/10/24 09:20:28;;;;;;;0.00;0.00;;;;;;;17.40;86.04;98392.59;6167064;23;20672;-59
2022/10/24 09:22:58;;;;;;;0.00;0.00;;;;;;;17.54;84.44;98388.13;6169801;23;20286;-58
2022/10/24 09:25:29;;;;;;;0.00;0.00;;;;;;;17.66;85.50;98388.38;6167157;23;20205;-60
2022/10/24 09:27:57;;;;;;;0.00;0.00;;;;;;;17.66;83.02;98399.72;6169978;23;20298;-59
2022/10/24 09:30:26;;;;;;;0.00;0.00;;;;;;;17.59;85.63;98401.53;6166757;23;20219;-59
2022/10/24 09:32:53;;;;;;;0.00;0.00;;;;;;;17.66;83.01;98396.28;6169249;23;20200;-60
2022/10/24 09:35:23;;;;;;;0.00;0.00;;;;;;;17.93;84.13;98402.38;6165833;23;20226;-60
2022/10/24 09:37:54;;;;;;;0.00;0.00;;;;;;;17.96;82.03;98401.97;6170500;23;20207;-59
2022/10/24 09:40:23;;;;;;;0.00;0.00;;;;;;;17.91;82.10;98404.41;6164248;23;20605;-60
2022/10/24 09:42:58;;;;;;;0.00;0.00;;;;;;;17.87;83.23;98407.66;6170506;23;20207;-60
2022/10/24 09:45:38;;;;;;;0.00;0.00;;;;;;;18.09;80.60;98405.63;6190523;22;20204;-60
2022/10/24 09:48:16;;;;;;;0.00;0.00;;;;;;;18.14;79.81;98406.63;6197261;23;20264;-60
2022/10/24 09:50:46;;;;;;;0.00;0.00;;;;;;;17.93;82.14;98396.28;6200701;23;20205;-60
2022/10/24 09:53:23;;;;;;;0.00;0.00;;;;;;;17.88;79.73;98394.25;6185030;23;20211;-60
2022/10/24 09:55:53;;;;;;;0.00;0.00;;;;;;;17.90;80.31;98394.84;6201314;23;20202;-61
2022/10/24 09:58:21;;;;;;;0.00;0.00;;;;;;;18.03;78.20;98401.97;6197834;23;20217;-61
2022/10/24 10:00:58;;;;;;;0.00;0.00;;;;;;;18.08;78.71;98404.81;6201965;23;20199;-61
2022/10/24 10:03:26;;;;;;;0.00;0.00;;;;;;;18.06;78.95;98404.19;6197530;23;20206;-62
2022/10/24 10:05:55;;;;;;;0.00;0.00;;;;;;;18.27;77.61;98403.19;6200707;23;20292;-61
2022/10/24 10:08:25;;;;;;;0.00;0.00;;;;;;;18.14;80.15;98413.75;6198741;23;20226;-61
2022/10/24 10:11:04;;;;;;;0.00;0.00;;;;;;;18.32;78.20;98417.59;6201081;23;20265;-59
2022/10/24 10:13:37;;;;;;;0.00;0.00;;;;;;;18.19;78.25;98416.59;6199118;23;20268;-60
2022/10/24 10:16:06;;;;;;;0.00;0.00;;;;;;;17.98;78.03;98409.69;6199136;23;20641;-60
2022/10/24 10:18:41;;;;;;;0.00;0.00;;;;;;;18.14;79.97;98429.59;6202414;23;20204;-60
2022/10/24 10:21:13;;;;;;;0.00;0.00;;;;;;;18.22;79.07;98428.56;6198603;23;20732;-60
2022/10/24 10:23:41;;;;;;;0.00;0.00;;;;;;;18.39;77.89;98437.69;6201614;23;20529;-60
2022/10/24 10:26:14;;;;;;;0.00;0.00;;;;;;;18.16;78.98;98438.13;6198543;23;20210;-60
2022/10/24 10:28:46;;;;;;;0.00;0.00;;;;;;;18.39;76.87;98450.91;6201587;23;20264;-60
2022/10/24 10:31:12;;;;;;;0.00;0.00;;;;;;;18.51;78.23;98447.63;6196918;23;20214;-60
2022/10/24 10:33:47;;;;;;;0.00;0.00;;;;;;;18.55;76.52;98454.13;6201207;23;20207;-60
2022/10/24 10:36:20;;;;;;;0.00;0.00;;;;;;;18.44;78.14;98455.59;6197731;23;20249;-60
2022/10/24 10:38:51;;;;;;;0.00;0.00;;;;;;;18.52;77.43;98468.59;6200894;23;20207;-60
2022/10/24 10:41:37;;;;;;;0.00;0.00;;;;;;;18.40;77.54;98463.09;6198525;23;20223;-60
2022/10/24 10:44:19;;;;;;;0.00;0.00;;;;;;;18.48;77.44;98477.94;6197272;23;20207;-61
2022/10/24 10:46:56;;;;;;;0.00;0.00;;;;;;;18.51;78.15;98471.41;6201228;23;20215;-61
2022/10/24 10:49:27;;;;;;;0.00;0.00;;;;;;;18.38;75.34;98464.34;6198605;23;20211;-60
2022/10/24 10:51:58;;;;;;;0.00;0.00;;;;;;;18.42;76.80;98476.13;6201041;23;20215;-60
2022/10/24 10:54:42;;;;;;;0.00;0.00;;;;;;;18.55;74.84;98480.56;6170887;23;20209;-61
2022/10/24 10:57:13;;;;;;;0.00;0.00;;;;;;;18.43;76.54;98473.25;6198571;23;20267;-61
2022/10/24 10:59:51;;;;;;;0.00;0.00;;;;;;;18.24;75.83;98485.47;6201936;23;20265;-60
2022/10/24 11:02:40;;;;;;;0.00;0.00;;;;;;;18.57;75.60;98491.75;6197206;23;20281;-60
2022/10/24 11:05:24;;;;;;;0.00;0.00;;;;;;;18.79;71.60;98483.56;6177953;23;20561;-60
2022/10/24 11:08:00;;;;;;;0.00;0.00;;;;;;;18.90;72.61;98469.69;6201285;23;20579;-61
2022/10/24 11:10:32;;;;;;;0.00;0.00;;;;;;;18.70;74.67;98489.06;6198911;23;20203;-60
2022/10/24 11:13:03;;;;;;;0.00;0.00;;;;;;;18.42;74.60;98500.69;6197162;23;20208;-61
2022/10/24 11:15:34;;;;;;;0.00;0.00;;;;;;;18.24;75.65;98493.41;6200649;23;20206;-61
2022/10/24 11:18:06;;;;;;;0.00;0.00;;;;;;;18.38;75.46;98490.75;6197695;23;20623;-61
2022/10/24 11:20:37;;;;;;;0.00;0.00;;;;;;;18.56;75.94;98493.56;6200906;23;20211;-61
2022/10/24 11:23:14;;;;;;;0.00;0.00;;;;;;;18.44;74.94;98497.88;6196507;23;20265;-61
2022/10/24 11:25:44;;;;;;;0.00;0.00;;;;;;;18.56;78.47;98490.13;6201127;23;20242;-53
2022/10/24 11:28:16;;;;;;;0.00;0.00;;;;;;;18.58;76.45;98480.94;6197235;23;20252;-59
2022/10/24 11:30:50;;;;;;;0.00;0.00;;;;;;;18.49;76.40;98484.03;6196086;23;20208;-62
2022/10/24 11:33:22;;;;;;;0.00;0.00;;;;;;;18.49;76.46;98481.38;6197081;23;20211;-61
2022/10/24 11:36:06;;;;;;;0.00;0.00;;;;;;;18.39;75.52;98484.47;6200846;23;20679;-62
2022/10/24 11:38:39;;;;;;;0.00;0.00;;;;;;;18.35;76.48;98484.03;6170565;23;20207;-61
2022/10/24 11:41:24;;;;;;;0.00;0.00;;;;;;;18.30;77.04;98470.63;6197103;23;20257;-60
2022/10/24 11:43:55;;;;;;;0.00;0.00;;;;;;;18.49;76.15;98473.44;6200152;23;20207;-63
2022/10/24 11:46:25;;;;;;;0.00;0.00;;;;;;;18.64;75.56;98460.81;6195859;23;20568;-61